Time;durP1;ratioP1;P1;durP2;ratioP2;P2;SDS_P1;SDS_P2;PMS_P1;PMS_P2;Temp;Humidity;BMP_temperature;BMP_pressure;BME280_temperature;BME280_humidity;BME280_pressure;Samples;Min_cycle;Max_cycle;Signal;HPM_P1;HPM_P2
2024/03/07 00:00:17;;;;;;;;;;;;;;;-144.99;100.00;67352.69;5096338;28;19912;-81
2024/03/07 00:02:49;;;;;;;;;;;;;;;-144.99;100.00;67352.69;5097948;28;20295;-82
2024/03/07 00:05:15;;;;;;;;;;;;;;;-144.99;100.00;67352.69;5095817;28;19912;-82
2024/03/07 00:07:41;;;;;;;;;;;;;;;-144.99;100.00;67352.69;5097069;28;19923;-82
2024/03/07 00:10:07;;;;;;;;;;;;;;;-144.99;100.00;67352.69;5095111;28;19912;-82
2024/03/07 00:12:32;;;;;;;;;;;;;;;-144.99;100.00;67352.69;5099127;28;19912;-82
2024/03/07 00:14:58;;;;;;;;;;;;;;;-144.99;100.00;67352.69;5100168;28;19912;-82
2024/03/07 00:17:23;;;;;;;;;;;;;;;-144.99;100.00;67352.69;5102228;28;19923;-82
2024/03/07 00:19:48;;;;;;;;;;;;;;;-144.99;100.00;67352.69;5098760;28;19916;-82
2024/03/07 00:22:14;;;;;;;;;;;;;;;-144.99;100.00;67352.69;5099858;28;20007;-82
2024/03/07 00:24:40;;;;;;;;;;;;;;;-144.99;100.00;67352.69;5101260;28;20545;-82
2024/03/07 00:27:05;;;;;;;;;;;;;;;-144.99;100.00;67352.69;5100034;28;19966;-82
2024/03/07 00:29:30;;;;;;;;;;;;;;;-144.99;100.00;67352.69;5100113;28;20279;-82
2024/03/07 00:31:55;;;;;;;;;;;;;;;-144.99;100.00;67352.69;5100940;28;20003;-82
2024/03/07 00:34:23;;;;;;;;;;;;;;;-144.99;100.00;67352.69;5100098;28;19955;-82
2024/03/07 00:36:48;;;;;;;;;;;;;;;-144.99;100.00;67352.69;5101255;28;19923;-82
2024/03/07 00:39:13;;;;;;;;;;;;;;;-144.99;100.00;67352.69;5100722;28;19916;-82
2024/03/07 00:41:39;;;;;;;;;;;;;;;-144.99;100.00;67352.69;5092162;28;19912;-82
2024/03/07 00:44:04;;;;;;;;;;;;;;;-144.99;100.00;67352.69;5100491;28;20347;-82
2024/03/07 00:46:29;;;;;;;;;;;;;;;-144.99;100.00;67352.69;5098734;28;20363;-82
2024/03/07 00:48:54;;;;;;;;;;;;;;;-144.99;100.00;67352.69;5097972;28;19912;-82
2024/03/07 00:51:20;;;;;;;;;;;;;;;-144.99;100.00;67352.69;5096421;28;19931;-81
2024/03/07 00:53:45;;;;;;;;;;;;;;;-144.99;100.00;67352.69;5096993;28;19920;-80
2024/03/07 00:56:10;;;;;;;;;;;;;;;-144.99;100.00;67352.69;5103230;28;20398;-81
2024/03/07 00:58:35;;;;;;;;;;;;;;;-144.99;100.00;67352.69;5103087;28;20006;-80
2024/03/07 01:01:01;;;;;;;;;;;;;;;-144.99;100.00;67352.69;5106711;28;19927;-81
2024/03/07 01:03:26;;;;;;;;;;;;;;;-144.99;100.00;67352.69;5102846;28;19916;-80
2024/03/07 01:05:52;;;;;;;;;;;;;;;-144.99;100.00;67352.69;5103619;28;19912;-80
2024/03/07 01:08:17;;;;;;;;;;;;;;;-144.99;100.00;67352.69;5093916;28;19912;-80
2024/03/07 01:10:43;;;;;;;;;;;;;;;-144.99;100.00;67352.69;5101883;28;19912;-80
2024/03/07 01:13:15;;;;;;;;;;;;;;;-144.99;100.00;67352.69;5099811;28;19912;-80
2024/03/07 01:15:40;;;;;;;;;;;;;;;-144.99;100.00;67352.69;5099780;28;19912;-80
2024/03/07 01:18:07;;;;;;;;;;;;;;;-144.99;100.00;67352.69;5099070;28;19916;-79
2024/03/07 01:20:32;;;;;;;;;;;;;;;-144.99;100.00;67352.69;5099575;28;19912;-80
2024/03/07 01:22:57;;;;;;;;;;;;;;;-144.99;100.00;67352.69;5098418;28;19912;-79
2024/03/07 01:25:22;;;;;;;;;;;;;;;-144.99;100.00;67352.69;5097886;28;19946;-79
2024/03/07 01:27:48;;;;;;;;;;;;;;;-144.99;100.00;67352.69;5097973;28;20329;-79
2024/03/07 01:30:13;;;;;;;;;;;;;;;-144.99;100.00;67352.69;5095088;28;20450;-79
2024/03/07 01:32:39;;;;;;;;;;;;;;;-144.99;100.00;67352.69;5096570;28;20055;-79
2024/03/07 01:35:07;;;;;;;;;;;;;;;-144.99;100.00;67352.69;5095332;28;19958;-79
2024/03/07 01:37:32;;;;;;;;;;;;;;;-144.99;100.00;67352.69;5092565;28;19927;-79
2024/03/07 01:39:57;;;;;;;;;;;;;;;-144.99;100.00;67352.69;5088881;28;20147;-79
2024/03/07 01:42:24;;;;;;;;;;;;;;;-144.99;100.00;67352.69;5095426;28;19912;-78
2024/03/07 01:44:50;;;;;;;;;;;;;;;-144.99;100.00;67352.69;5080914;28;19976;-79
2024/03/07 01:47:15;;;;;;;;;;;;;;;-144.99;100.00;67352.69;5083979;28;19912;-79
2024/03/07 01:49:41;;;;;;;;;;;;;;;-144.99;100.00;67352.69;5085789;28;19923;-78
2024/03/07 01:52:07;;;;;;;;;;;;;;;-144.99;100.00;67352.69;5095026;28;20436;-79
2024/03/07 01:54:32;;;;;;;;;;;;;;;-144.99;100.00;67352.69;5076817;28;19914;-78
2024/03/07 01:56:58;;;;;;;;;;;;;;;-144.99;100.00;67352.69;5087377;28;20304;-78
2024/03/07 01:59:24;;;;;;;;;;;;;;;-144.99;100.00;67352.69;5091500;28;19969;-79
2024/03/07 02:01:50;;;;;;;;;;;;;;;-144.99;100.00;67352.69;5088544;28;19913;-80
2024/03/07 02:04:15;;;;;;;;;;;;;;;-144.99;100.00;67352.69;5089496;28;19916;-79
2024/03/07 02:06:40;;;;;;;;;;;;;;;-144.99;100.00;67352.69;5092967;28;19920;-79
2024/03/07 02:09:06;;;;;;;;;;;;;;;-144.99;100.00;67352.69;5093180;28;19919;-78
2024/03/07 02:11:32;;;;;;;;;;;;;;;-144.99;100.00;67352.69;5090193;28;19942;-79
2024/03/07 02:13:57;;;;;;;;;;;;;;;-144.99;100.00;67352.69;5073785;28;19913;-79
2024/03/07 02:16:22;;;;;;;;;;;;;;;-144.99;100.00;67352.69;5081453;28;19912;-79
2024/03/07 02:18:48;;;;;;;;;;;;;;;-144.99;100.00;67352.69;5085042;28;19916;-79
2024/03/07 02:21:14;;;;;;;;;;;;;;;-144.99;100.00;67352.69;5093573;28;19916;-79
2024/03/07 02:23:39;;;;;;;;;;;;;;;-144.99;100.00;67352.69;5094198;28;19955;-79
2024/03/07 02:26:04;;;;;;;;;;;;;;;-144.99;100.00;67352.69;5087532;28;19939;-78
2024/03/07 02:28:29;;;;;;;;;;;;;;;-144.99;100.00;67352.69;5090205;28;19981;-78
2024/03/07 02:30:55;;;;;;;;;;;;;;;-144.99;100.00;67352.69;5092107;28;19912;-78
2024/03/07 02:33:20;;;;;;;;;;;;;;;-144.99;100.00;67352.69;5083008;28;20363;-78
2024/03/07 02:35:45;;;;;;;;;;;;;;;-144.99;100.00;67352.69;5080124;28;19999;-78
2024/03/07 02:38:10;;;;;;;;;;;;;;;-144.99;100.00;67352.69;5078816;28;19920;-78
2024/03/07 02:40:35;;;;;;;;;;;;;;;-144.99;100.00;67352.69;5090954;28;19916;-78
2024/03/07 02:43:04;;;;;;;;;;;;;;;-144.99;100.00;67352.69;5091925;28;19994;-78
2024/03/07 02:45:30;;;;;;;;;;;;;;;-144.99;100.00;67352.69;5075485;28;19917;-79
2024/03/07 02:47:55;;;;;;;;;;;;;;;-144.99;100.00;67352.69;5085529;28;19913;-78
2024/03/07 02:50:22;;;;;;;;;;;;;;;-144.99;100.00;67352.69;5088604;28;20401;-78
2024/03/07 02:52:47;;;;;;;;;;;;;;;-144.99;100.00;67352.69;5091861;28;19923;-78
2024/03/07 02:55:13;;;;;;;;;;;;;;;-144.99;100.00;67352.69;5083461;28;19912;-79
2024/03/07 02:57:38;;;;;;;;;;;;;;;-144.99;100.00;67352.69;5083504;28;19982;-78
2024/03/07 03:00:13;;;;;;;;;;;;;;;-144.99;100.00;67352.69;5089578;28;19931;-78
2024/03/07 03:02:38;;;;;;;;;;;;;;;-144.99;100.00;67352.69;5088462;28;19916;-77
2024/03/07 03:05:06;;;;;;;;;;;;;;;-144.99;100.00;67352.69;5086565;28;19969;-77
2024/03/07 03:07:31;;;;;;;;;;;;;;;-144.99;100.00;67352.69;5081974;28;19977;-77
2024/03/07 03:09:56;;;;;;;;;;;;;;;-144.99;100.00;67352.69;5091312;28;20002;-78
2024/03/07 03:12:22;;;;;;;;;;;;;;;-144.99;100.00;67352.69;5082374;28;19918;-78
2024/03/07 03:14:48;;;;;;;;;;;;;;;-144.99;100.00;67352.69;5084102;28;19912;-77
2024/03/07 03:17:14;;;;;;;;;;;;;;;-144.99;100.00;67352.69;5090286;28;19951;-78
2024/03/07 03:19:39;;;;;;;;;;;;;;;-144.99;100.00;67352.69;5077916;28;19917;-78
2024/03/07 03:22:05;;;;;;;;;;;;;;;-144.99;100.00;67352.69;5082267;28;19916;-78
2024/03/07 03:24:30;;;;;;;;;;;;;;;-144.99;100.00;67352.69;5084179;28;20113;-78
2024/03/07 03:26:55;;;;;;;;;;;;;;;-144.99;100.00;67352.69;5094829;28;19965;-78
2024/03/07 03:29:21;;;;;;;;;;;;;;;-144.99;100.00;67352.69;5093207;28;19916;-79
2024/03/07 03:31:46;;;;;;;;;;;;;;;-144.99;100.00;67352.69;5086511;28;20436;-78
2024/03/07 03:34:11;;;;;;;;;;;;;;;-144.99;100.00;67352.69;5086805;28;19916;-78
2024/03/07 03:36:36;;;;;;;;;;;;;;;-144.99;100.00;67352.69;5094808;28;19920;-79
2024/03/07 03:39:01;;;;;;;;;;;;;;;-144.99;100.00;67352.69;5094390;28;19923;-78
2024/03/07 03:41:27;;;;;;;;;;;;;;;-144.99;100.00;67352.69;5093394;28;20344;-78
2024/03/07 03:43:53;;;;;;;;;;;;;;;-144.99;100.00;67352.69;5087472;28;19912;-78
2024/03/07 03:46:18;;;;;;;;;;;;;;;-144.99;100.00;67352.69;5094622;28;19919;-80
2024/03/07 03:48:43;;;;;;;;;;;;;;;-144.99;100.00;67352.69;5090454;28;20448;-78
2024/03/07 03:51:09;;;;;;;;;;;;;;;-144.99;100.00;67352.69;5089189;28;19913;-79
2024/03/07 03:53:35;;;;;;;;;;;;;;;-144.99;100.00;67352.69;5096568;28;19934;-79
2024/03/07 03:56:00;;;;;;;;;;;;;;;-144.99;100.00;67352.69;5092909;28;20302;-79
2024/03/07 03:58:25;;;;;;;;;;;;;;;-144.99;100.00;67352.69;5098099;28;20320;-79
2024/03/07 04:00:51;;;;;;;;;;;;;;;-144.99;100.00;67352.69;5098304;28;20287;-79
2024/03/07 04:03:16;;;;;;;;;;;;;;;-144.99;100.00;67352.69;5096468;28;20035;-79
2024/03/07 04:05:41;;;;;;;;;;;;;;;-144.99;100.00;67352.69;5097875;28;20395;-79
2024/03/07 04:08:07;;;;;;;;;;;;;;;-144.99;100.00;67352.69;5095950;28;20044;-79
2024/03/07 04:10:32;;;;;;;;;;;;;;;-144.99;100.00;67352.69;5097609;28;19912;-79
2024/03/07 04:12:58;;;;;;;;;;;;;;;-144.99;100.00;67352.69;5096169;28;19916;-79
2024/03/07 04:15:26;;;;;;;;;;;;;;;-144.99;100.00;67352.69;5087587;28;19913;-79
2024/03/07 04:17:51;;;;;;;;;;;;;;;-144.99;100.00;67352.69;5095862;28;19923;-79
2024/03/07 04:20:17;;;;;;;;;;;;;;;-144.99;100.00;67352.69;5086612;28;19912;-78
2024/03/07 04:22:42;;;;;;;;;;;;;;;-144.99;100.00;67352.69;5087213;28;19912;-79
2024/03/07 04:25:07;;;;;;;;;;;;;;;-144.99;100.00;67352.69;5089803;28;19916;-79
2024/03/07 04:27:39;;;;;;;;;;;;;;;-144.99;100.00;67352.69;5094982;28;19919;-79
2024/03/07 04:30:06;;;;;;;;;;;;;;;-144.99;100.00;67352.69;5095732;28;19919;-79
2024/03/07 04:32:31;;;;;;;;;;;;;;;-144.99;100.00;67352.69;5095888;28;19919;-79
2024/03/07 04:35:00;;;;;;;;;;;;;;;-144.99;100.00;67352.69;5095830;28;19913;-80
2024/03/07 04:37:27;;;;;;;;;;;;;;;-144.99;100.00;67352.69;5090766;28;19917;-79
2024/03/07 04:39:52;;;;;;;;;;;;;;;-144.99;100.00;67352.69;5095116;28;20382;-79
2024/03/07 04:42:17;;;;;;;;;;;;;;;-144.99;100.00;67352.69;5086152;28;19913;-79
2024/03/07 04:44:43;;;;;;;;;;;;;;;-144.99;100.00;67352.69;5086942;28;19919;-79
2024/03/07 04:47:08;;;;;;;;;;;;;;;-144.99;100.00;67352.69;5093994;28;19912;-80
2024/03/07 04:49:34;;;;;;;;;;;;;;;-144.99;100.00;67352.69;5095036;28;19912;-79
2024/03/07 04:52:00;;;;;;;;;;;;;;;-144.99;100.00;67352.69;5094831;28;19912;-79
2024/03/07 04:54:26;;;;;;;;;;;;;;;-144.99;100.00;67352.69;5095446;28;19912;-80
2024/03/07 04:56:52;;;;;;;;;;;;;;;-144.99;100.00;67352.69;5094744;28;19916;-80
2024/03/07 04:59:18;;;;;;;;;;;;;;;-144.99;100.00;67352.69;5094506;28;19916;-79
2024/03/07 05:01:44;;;;;;;;;;;;;;;-144.99;100.00;67352.69;5094649;28;19912;-79
2024/03/07 05:04:09;;;;;;;;;;;;;;;-144.99;100.00;67352.69;5093290;28;19995;-80
2024/03/07 05:06:34;;;;;;;;;;;;;;;-144.99;100.00;67352.69;5092947;28;19999;-80
2024/03/07 05:09:03;;;;;;;;;;;;;;;-144.99;100.00;67352.69;5094103;28;19957;-80
2024/03/07 05:11:32;;;;;;;;;;;;;;;-144.99;100.00;67352.69;5092606;28;19912;-80
2024/03/07 05:13:57;;;;;;;;;;;;;;;-144.99;100.00;67352.69;5094356;28;19935;-80
2024/03/07 05:16:27;;;;;;;;;;;;;;;-144.99;100.00;67352.69;5094273;28;20374;-79
2024/03/07 05:18:52;;;;;;;;;;;;;;;-144.99;100.00;67352.69;5092010;28;19916;-79
2024/03/07 05:23:59;;;;;;;;;;;;;;;-144.99;100.00;67352.69;5094425;28;20348;-80
2024/03/07 05:26:24;;;;;;;;;;;;;;;-144.99;100.00;67352.69;5092090;28;19912;-80
2024/03/07 05:28:51;;;;;;;;;;;;;;;-144.99;100.00;67352.69;5091354;28;19919;-80
2024/03/07 05:31:18;;;;;;;;;;;;;;;-144.99;100.00;67352.69;5092335;28;20242;-80
2024/03/07 05:33:43;;;;;;;;;;;;;;;-144.99;100.00;67352.69;5093786;28;19912;-80
2024/03/07 05:36:14;;;;;;;;;;;;;;;-144.99;100.00;67352.69;5091688;28;19912;-80
2024/03/07 05:38:46;;;;;;;;;;;;;;;-144.99;100.00;67352.69;5091319;28;20014;-80
2024/03/07 05:41:12;;;;;;;;;;;;;;;-144.99;100.00;67352.69;5092972;28;19916;-80
2024/03/07 05:43:37;;;;;;;;;;;;;;;-144.99;100.00;67352.69;5091139;28;20019;-81
2024/03/07 05:46:03;;;;;;;;;;;;;;;-144.99;100.00;67352.69;5092968;28;19943;-81
2024/03/07 05:48:29;;;;;;;;;;;;;;;-144.99;100.00;67352.69;5090967;28;20362;-80
2024/03/07 05:50:54;;;;;;;;;;;;;;;-144.99;100.00;67352.69;5093026;28;19919;-80
2024/03/07 05:53:19;;;;;;;;;;;;;;;-144.99;100.00;67352.69;5091174;28;19912;-81
2024/03/07 05:55:45;;;;;;;;;;;;;;;-144.99;100.00;67352.69;5087445;28;20003;-80
2024/03/07 05:58:11;;;;;;;;;;;;;;;-144.99;100.00;67352.69;5085721;28;20448;-81
2024/03/07 06:00:37;;;;;;;;;;;;;;;-144.99;100.00;67352.69;5090800;28;19912;-81
2024/03/07 06:03:04;;;;;;;;;;;;;;;-144.99;100.00;67352.69;5090407;28;20394;-81
2024/03/07 06:05:30;;;;;;;;;;;;;;;-144.99;100.00;67352.69;5091937;28;20003;-80
2024/03/07 06:07:56;;;;;;;;;;;;;;;-144.99;100.00;67352.69;5090852;28;20424;-81
2024/03/07 06:10:23;;;;;;;;;;;;;;;-144.99;100.00;67352.69;5091078;28;19916;-81
2024/03/07 06:12:49;;;;;;;;;;;;;;;-144.99;100.00;67352.69;5091837;28;19912;-81
2024/03/07 06:15:14;;;;;;;;;;;;;;;-144.99;100.00;67352.69;5091892;28;19935;-81
2024/03/07 06:17:39;;;;;;;;;;;;;;;-144.99;100.00;67352.69;5091945;28;20405;-81
2024/03/07 06:20:16;;;;;;;;;;;;;;;-144.99;100.00;67352.69;5091345;28;19923;-81
2024/03/07 06:22:43;;;;;;;;;;;;;;;-144.99;100.00;67352.69;5092253;28;20422;-81
2024/03/07 06:25:18;;;;;;;;;;;;;;;-144.99;100.00;67352.69;5091335;28;20000;-81
2024/03/07 06:27:48;;;;;;;;;;;;;;;-144.99;100.00;67352.69;5092261;28;19916;-82
2024/03/07 06:30:16;;;;;;;;;;;;;;;-144.99;100.00;67352.69;5090654;28;19913;-82
2024/03/07 06:32:41;;;;;;;;;;;;;;;-144.99;100.00;67352.69;5091664;28;19959;-82
2024/03/07 06:35:06;;;;;;;;;;;;;;;-144.99;100.00;67352.69;5090716;28;20012;-81
2024/03/07 06:37:31;;;;;;;;;;;;;;;-144.99;100.00;67352.69;5089337;28;19916;-82
2024/03/07 06:39:57;;;;;;;;;;;;;;;-144.99;100.00;67352.69;5097907;28;19916;-82
2024/03/07 06:42:22;;;;;;;;;;;;;;;-144.99;100.00;67352.69;5098002;28;19912;-82
2024/03/07 06:44:47;;;;;;;;;;;;;;;-144.99;100.00;67352.69;5096326;28;19978;-82
2024/03/07 06:47:12;;;;;;;;;;;;;;;-144.99;100.00;67352.69;5096484;28;19912;-82
2024/03/07 06:49:39;;;;;;;;;;;;;;;-144.99;100.00;67352.69;5096493;28;19919;-82
2024/03/07 06:52:05;;;;;;;;;;;;;;;-144.99;100.00;67352.69;5096712;28;20310;-82
2024/03/07 06:54:31;;;;;;;;;;;;;;;-144.99;100.00;67352.69;5096879;28;19912;-82
2024/03/07 06:56:57;;;;;;;;;;;;;;;-144.99;100.00;67352.69;5097601;28;19912;-86
2024/03/07 06:59:22;;;;;;;;;;;;;;;-144.99;100.00;67352.69;5100428;28;19923;-82
2024/03/07 07:01:47;;;;;;;;;;;;;;;-144.99;100.00;67352.69;5098164;28;19920;-82
2024/03/07 07:04:14;;;;;;;;;;;;;;;-144.99;100.00;67352.69;5098268;28;19942;-82
2024/03/07 07:06:42;;;;;;;;;;;;;;;-144.99;100.00;67352.69;5099355;28;19912;-82
2024/03/07 07:09:08;;;;;;;;;;;;;;;-144.99;100.00;67352.69;5098262;28;20438;-82
2024/03/07 07:11:34;;;;;;;;;;;;;;;-144.99;100.00;67352.69;5096928;28;19995;-83
2024/03/07 07:13:59;;;;;;;;;;;;;;;-144.99;100.00;67352.69;5097034;28;19939;-82
2024/03/07 07:16:25;;;;;;;;;;;;;;;-144.99;100.00;67352.69;5097285;28;20362;-82
2024/03/07 07:18:52;;;;;;;;;;;;;;;-144.99;100.00;67352.69;5096868;28;19916;-83
2024/03/07 07:21:17;;;;;;;;;;;;;;;-144.99;100.00;67352.69;5100330;28;19916;-82
2024/03/07 07:23:42;;;;;;;;;;;;;;;-144.99;100.00;67352.69;5099875;28;19957;-82
2024/03/07 07:26:08;;;;;;;;;;;;;;;-144.99;100.00;67352.69;5097748;28;19913;-82
2024/03/07 07:28:36;;;;;;;;;;;;;;;-144.99;100.00;67352.69;5096960;28;19912;-82
2024/03/07 07:31:01;;;;;;;;;;;;;;;-144.99;100.00;67352.69;5097448;28;19919;-82
2024/03/07 07:33:26;;;;;;;;;;;;;;;-144.99;100.00;67352.69;5097720;28;19912;-81
2024/03/07 07:35:51;;;;;;;;;;;;;;;-144.99;100.00;67352.69;5096062;28;19912;-82
2024/03/07 07:38:17;;;;;;;;;;;;;;;-144.99;100.00;67352.69;5095471;28;19916;-81
2024/03/07 07:40:42;;;;;;;;;;;;;;;-144.99;100.00;67352.69;5096558;28;19919;-81
2024/03/07 07:43:08;;;;;;;;;;;;;;;-144.99;100.00;67352.69;5097441;28;20298;-82
2024/03/07 07:45:35;;;;;;;;;;;;;;;-144.99;100.00;67352.69;5095233;28;19939;-82
2024/03/07 07:48:00;;;;;;;;;;;;;;;-144.99;100.00;67352.69;5095026;28;20375;-82
2024/03/07 07:50:26;;;;;;;;;;;;;;;-144.99;100.00;67352.69;5097564;28;19970;-82
2024/03/07 07:52:55;;;;;;;;;;;;;;;-144.99;100.00;67352.69;5095338;28;19966;-82
2024/03/07 07:55:21;;;;;;;;;;;;;;;-144.99;100.00;67352.69;5098419;28;19999;-82
2024/03/07 07:57:47;;;;;;;;;;;;;;;-144.99;100.00;67352.69;5099043;28;19951;-83
2024/03/07 08:00:21;;;;;;;;;;;;;;;-144.99;100.00;67352.69;5097313;28;19969;-82
2024/03/07 08:02:47;;;;;;;;;;;;;;;-144.99;100.00;67352.69;5081560;28;19969;-82
2024/03/07 08:05:17;;;;;;;;;;;;;;;-144.99;100.00;67352.69;5093879;28;19919;-84
2024/03/07 08:07:42;;;;;;;;;;;;;;;-144.99;100.00;67352.69;5095031;28;19919;-82
2024/03/07 08:10:08;;;;;;;;;;;;;;;-144.99;100.00;67352.69;5095472;28;19912;-82
2024/03/07 08:12:33;;;;;;;;;;;;;;;-144.99;100.00;67352.69;5094639;28;19912;-82
2024/03/07 08:14:58;;;;;;;;;;;;;;;-144.99;100.00;67352.69;5093641;28;19920;-81
2024/03/07 08:17:23;;;;;;;;;;;;;;;-144.99;100.00;67352.69;5093311;28;19918;-83
2024/03/07 08:19:48;;;;;;;;;;;;;;;-144.99;100.00;67352.69;5093771;28;19923;-82
2024/03/07 08:22:15;;;;;;;;;;;;;;;-144.99;100.00;67352.69;5084860;28;19943;-82
2024/03/07 08:24:40;;;;;;;;;;;;;;;-144.99;100.00;67352.69;5088390;28;19916;-84
2024/03/07 08:27:05;;;;;;;;;;;;;;;-144.99;100.00;67352.69;5095164;28;20011;-83
2024/03/07 08:29:30;;;;;;;;;;;;;;;-144.99;100.00;67352.69;5092227;28;20297;-82
2024/03/07 08:31:55;;;;;;;;;;;;;;;-144.99;100.00;67352.69;5093059;28;19972;-82
2024/03/07 08:34:21;;;;;;;;;;;;;;;-144.99;100.00;67352.69;5094374;28;20263;-82
2024/03/07 08:36:47;;;;;;;;;;;;;;;-144.99;100.00;67352.69;5092487;28;19919;-82
2024/03/07 08:39:13;;;;;;;;;;;;;;;-144.99;100.00;67352.69;5093221;28;19920;-83
2024/03/07 08:41:41;;;;;;;;;;;;;;;-144.99;100.00;67352.69;5092117;28;19951;-82
2024/03/07 08:44:06;;;;;;;;;;;;;;;-144.99;100.00;67352.69;5093479;28;19920;-82
2024/03/07 08:46:31;;;;;;;;;;;;;;;-144.99;100.00;67352.69;5092148;28;19916;-81
2024/03/07 08:48:56;;;;;;;;;;;;;;;-144.99;100.00;67352.69;5093689;28;20325;-83
2024/03/07 08:51:23;;;;;;;;;;;;;;;-144.99;100.00;67352.69;5094283;28;19912;-81
2024/03/07 08:53:48;;;;;;;;;;;;;;;-144.99;100.00;67352.69;5095806;28;19965;-81
2024/03/07 08:56:13;;;;;;;;;;;;;;;-144.99;100.00;67352.69;5095266;28;19912;-81
2024/03/07 08:58:38;;;;;;;;;;;;;;;-144.99;100.00;67352.69;5096265;28;19923;-81
2024/03/07 09:01:03;;;;;;;;;;;;;;;-144.99;100.00;67352.69;5094874;28;19912;-82
2024/03/07 09:03:29;;;;;;;;;;;;;;;-144.99;100.00;67352.69;5097033;28;19961;-81
2024/03/07 09:05:55;;;;;;;;;;;;;;;-144.99;100.00;67352.69;5086856;28;20064;-82
2024/03/07 09:08:20;;;;;;;;;;;;;;;-144.99;100.00;67352.69;5092170;28;20569;-81
2024/03/07 09:10:45;;;;;;;;;;;;;;;-144.99;100.00;67352.69;5093307;28;20390;-81
2024/03/07 09:13:11;;;;;;;;;;;;;;;-144.99;100.00;67352.69;5093138;28;19916;-81
2024/03/07 09:15:37;;;;;;;;;;;;;;;-144.99;100.00;67352.69;5093814;28;20398;-82
2024/03/07 09:18:03;;;;;;;;;;;;;;;-144.99;100.00;67352.69;5095639;28;19916;-82
2024/03/07 09:20:28;;;;;;;;;;;;;;;-144.99;100.00;67352.69;5096791;28;19912;-82
2024/03/07 09:22:54;;;;;;;;;;;;;;;-144.99;100.00;67352.69;5098235;28;19918;-82
2024/03/07 09:25:19;;;;;;;;;;;;;;;-144.99;100.00;67352.69;5097898;28;19912;-82
2024/03/07 09:27:45;;;;;;;;;;;;;;;-144.99;100.00;67352.69;5094015;28;20002;-81
2024/03/07 09:30:14;;;;;;;;;;;;;;;-144.99;100.00;67352.69;5095822;28;19912;-82
2024/03/07 09:32:40;;;;;;;;;;;;;;;-144.99;100.00;67352.69;5101526;28;19912;-82
2024/03/07 09:35:07;;;;;;;;;;;;;;;-144.99;100.00;67352.69;5099048;28;19918;-82
2024/03/07 09:37:32;;;;;;;;;;;;;;;-144.99;100.00;67352.69;5100657;28;19912;-82
2024/03/07 09:39:57;;;;;;;;;;;;;;;-144.99;100.00;67352.69;5099593;28;19916;-82
2024/03/07 09:42:25;;;;;;;;;;;;;;;-144.99;100.00;67352.69;5099711;28;19995;-82
2024/03/07 09:44:51;;;;;;;;;;;;;;;-144.99;100.00;67352.69;5095042;28;19912;-81
2024/03/07 09:47:18;;;;;;;;;;;;;;;-144.99;100.00;67352.69;5091390;28;20425;-81
2024/03/07 09:49:44;;;;;;;;;;;;;;;-144.99;100.00;67352.69;5090672;28;19912;-81
2024/03/07 09:52:11;;;;;;;;;;;;;;;-144.99;100.00;67352.69;5092472;28;19921;-81
2024/03/07 09:54:37;;;;;;;;;;;;;;;-144.99;100.00;67352.69;5091397;28;19912;-81
2024/03/07 09:57:07;;;;;;;;;;;;;;;-144.99;100.00;67352.69;5092255;28;20149;-81
2024/03/07 09:59:35;;;;;;;;;;;;;;;-144.99;100.00;67352.69;5090971;28;19916;-81
2024/03/07 10:02:04;;;;;;;;;;;;;;;-144.99;100.00;67352.69;5092333;28;19965;-81
2024/03/07 10:04:31;;;;;;;;;;;;;;;-144.99;100.00;67352.69;5091563;28;19916;-81
2024/03/07 10:06:57;;;;;;;;;;;;;;;-144.99;100.00;67352.69;5092798;28;19919;-81
2024/03/07 10:09:22;;;;;;;;;;;;;;;-144.99;100.00;67352.69;5091390;28;19912;-81
2024/03/07 10:11:57;;;;;;;;;;;;;;;-144.99;100.00;67352.69;5090528;28;20310;-81
2024/03/07 10:14:23;;;;;;;;;;;;;;;-144.99;100.00;67352.69;5091394;28;19912;-81
2024/03/07 10:16:48;;;;;;;;;;;;;;;-144.99;100.00;67352.69;5090408;28;19977;-81
2024/03/07 10:19:14;;;;;;;;;;;;;;;-144.99;100.00;67352.69;5089887;28;19965;-81
2024/03/07 10:21:40;;;;;;;;;;;;;;;-144.99;100.00;67352.69;5091554;28;19912;-81
2024/03/07 10:24:10;;;;;;;;;;;;;;;-144.99;100.00;67352.69;5090839;28;19918;-81
2024/03/07 10:26:37;;;;;;;;;;;;;;;-144.99;100.00;67352.69;5091674;28;19912;-81
2024/03/07 10:29:03;;;;;;;;;;;;;;;-144.99;100.00;67352.69;5089804;28;20388;-81
2024/03/07 10:31:29;;;;;;;;;;;;;;;-144.99;100.00;67352.69;5095611;28;19998;-81
2024/03/07 10:33:58;;;;;;;;;;;;;;;-144.99;100.00;67352.69;5098570;28;20385;-81
2024/03/07 10:36:24;;;;;;;;;;;;;;;-144.99;100.00;67352.69;5097655;28;19919;-81
2024/03/07 10:38:49;;;;;;;;;;;;;;;-144.99;100.00;67352.69;5097282;28;20373;-81
2024/03/07 10:41:15;;;;;;;;;;;;;;;-144.99;100.00;67352.69;5096812;28;19912;-81
2024/03/07 10:43:44;;;;;;;;;;;;;;;-144.99;100.00;67352.69;5097681;28;19912;-81
2024/03/07 10:46:10;;;;;;;;;;;;;;;-144.99;100.00;67352.69;5097639;28;19912;-81
2024/03/07 10:48:39;;;;;;;;;;;;;;;-144.99;100.00;67352.69;5097217;28;20002;-81
2024/03/07 10:51:27;;;;;;;;;;;;;;;-144.99;100.00;67352.69;5097516;28;19968;-81
2024/03/07 10:54:09;;;;;;;;;;;;;;;-144.99;100.00;67352.69;5097005;28;19919;-81
2024/03/07 10:56:50;;;;;;;;;;;;;;;-144.99;100.00;67352.69;5096900;28;19912;-81
2024/03/07 10:59:16;;;;;;;;;;;;;;;-144.99;100.00;67352.69;5096340;28;19947;-81
2024/03/07 11:01:49;;;;;;;;;;;;;;;-144.99;100.00;67352.69;5098007;28;20405;-82
2024/03/07 11:04:15;;;;;;;;;;;;;;;-144.99;100.00;67352.69;5092703;28;19927;-82
2024/03/07 11:06:41;;;;;;;;;;;;;;;-144.99;100.00;67352.69;5098029;28;19996;-81
2024/03/07 11:09:22;;;;;;;;;;;;;;;-144.99;100.00;67352.69;5098283;28;19912;-81
2024/03/07 11:11:48;;;;;;;;;;;;;;;-144.99;100.00;67352.69;5084243;28;20030;-82
2024/03/07 11:14:16;;;;;;;;;;;;;;;-144.99;100.00;67352.69;5065321;28;20410;-82
2024/03/07 11:16:41;;;;;;;;;;;;;;;-144.99;100.00;67352.69;5079609;28;19912;-81
2024/03/07 11:19:18;;;;;;;;;;;;;;;-144.99;100.00;67352.69;5095423;28;19966;-81
2024/03/07 11:21:43;;;;;;;;;;;;;;;-144.99;100.00;67352.69;5096755;28;19991;-81
2024/03/07 11:24:08;;;;;;;;;;;;;;;-144.99;100.00;67352.69;5098038;28;19959;-81
2024/03/07 11:26:34;;;;;;;;;;;;;;;-144.99;100.00;67352.69;5096305;28;19912;-82
2024/03/07 11:29:00;;;;;;;;;;;;;;;-144.99;100.00;67352.69;5097117;28;19916;-81
2024/03/07 11:31:27;;;;;;;;;;;;;;;-144.99;100.00;67352.69;5097705;28;20336;-81
2024/03/07 11:34:11;;;;;;;;;;;;;;;-144.99;100.00;67352.69;5097836;28;20005;-81
2024/03/07 11:36:45;;;;;;;;;;;;;;;-144.99;100.00;67352.69;5097619;28;19912;-81
2024/03/07 11:39:36;;;;;;;;;;;;;;;-144.99;100.00;67352.69;5095662;28;19916;-81
2024/03/07 11:42:02;;;;;;;;;;;;;;;-144.99;100.00;67352.69;5096406;28;19912;-81
2024/03/07 11:44:28;;;;;;;;;;;;;;;-144.99;100.00;67352.69;5098241;28;20015;-81
2024/03/07 11:46:53;;;;;;;;;;;;;;;-144.99;100.00;67352.69;5092684;28;20028;-81
2024/03/07 11:49:18;;;;;;;;;;;;;;;-144.99;100.00;67352.69;5095276;28;19912;-81
2024/03/07 11:51:47;;;;;;;;;;;;;;;-144.99;100.00;67352.69;5096208;28;19948;-81
2024/03/07 11:54:14;;;;;;;;;;;;;;;-144.99;100.00;67352.69;5096102;28;19985;-81
2024/03/07 11:56:39;;;;;;;;;;;;;;;-144.99;100.00;67352.69;5097912;28;19915;-81
2024/03/07 11:59:05;;;;;;;;;;;;;;;-144.99;100.00;67352.69;5097002;28;19931;-81
2024/03/07 12:01:31;;;;;;;;;;;;;;;-144.99;100.00;67352.69;5097333;28;20446;-81
2024/03/07 12:03:56;;;;;;;;;;;;;;;-144.99;100.00;67352.69;5096594;28;20010;-81
2024/03/07 12:06:22;;;;;;;;;;;;;;;-144.99;100.00;67352.69;5095371;28;20341;-81
2024/03/07 12:08:49;;;;;;;;;;;;;;;-144.99;100.00;67352.69;5096552;28;19947;-81
2024/03/07 12:11:15;;;;;;;;;;;;;;;-144.99;100.00;67352.69;5096872;28;19912;-81
2024/03/07 12:13:41;;;;;;;;;;;;;;;-144.99;100.00;67352.69;5096206;28;19912;-81
2024/03/07 12:16:08;;;;;;;;;;;;;;;-144.99;100.00;67352.69;5096376;28;19922;-81